Phillipstown, Illinois
Current Conditions -  °F | °C
As of 4:35 AM on Monday 20 Oct 2014 (Local Time) from KCUL Reporting Station
Light Rain Light Rain  
Wind Chill: 51°   Ceiling: 11000
Heat Index: 51°   Visibility: 10mi
Dew Point: 50°   Wind: 6mph
Humidity: 94%   Direction: 190°S
Pressure: 30.01"   Gusts: NA
Location:  38.1681°N, 88.0517°W
Report Text: KCUL 200935Z AUTO 19005KT 10SM -RA SCT033 SCT045 OVC110 11/10 A3001 RMK AO2 P0002 T01080098
Loading
Personal Weather Stations






























Interactive Weather Map New forecast layout! Learn more

10-Day Weather Forecast

Advertisements
Track Severe Weather on mobile